Time;durP1;ratioP1;P1;durP2;ratioP2;P2;SDS_P1;SDS_P2;PMS_P1;PMS_P2;Temp;Humidity;BMP_temperature;BMP_pressure;BME280_temperature;BME280_humidity;BME280_pressure;Samples;Min_cycle;Max_cycle;Signal;HPM_P1;HPM_P2
2021/08/18 00:01:38;;;;;;;3.00;1.40;;;;;;;;;;5012547;28;20053;-55
2021/08/18 00:04:04;;;;;;;4.28;1.40;;;;;;;;;;5014905;28;20501;-53
2021/08/18 00:06:30;;;;;;;2.90;1.10;;;;;;;;;;5015084;28;20409;-53
2021/08/18 00:08:55;;;;;;;7.50;1.73;;;;;;;;;;5015924;28;20086;-53
2021/08/18 00:11:22;;;;;;;3.28;1.40;;;;;;;;;;5013854;28;20041;-51
2021/08/18 00:13:48;;;;;;;3.03;1.25;;;;;;;;;;5016234;28;20048;-56
2021/08/18 00:16:14;;;;;;;4.88;1.40;;;;;;;;;;5019050;28;20041;-55
2021/08/18 00:18:40;;;;;;;5.72;1.60;;;;;;;;;;5017710;28;20041;-53
2021/08/18 00:21:06;;;;;;;3.88;1.50;;;;;;;;;;5019494;28;20054;-55
2021/08/18 00:23:32;;;;;;;4.00;1.80;;;;;;;;;;5017444;28;20129;-55
2021/08/18 00:25:57;;;;;;;5.20;1.70;;;;;;;;;;5014048;28;20560;-55
2021/08/18 00:28:23;;;;;;;5.85;2.22;;;;;;;;;;5017217;28;20041;-54
2021/08/18 00:30:49;;;;;;;2.80;1.38;;;;;;;;;;5017583;28;20033;-55
2021/08/18 00:33:15;;;;;;;3.40;1.70;;;;;;;;;;5001919;28;20046;-54
2021/08/18 00:35:41;;;;;;;3.88;1.80;;;;;;;;;;5013372;28;20049;-54
2021/08/18 00:38:06;;;;;;;4.10;1.70;;;;;;;;;;5011821;28;20434;-55
2021/08/18 00:40:32;;;;;;;4.43;1.70;;;;;;;;;;4998676;28;20117;-55
2021/08/18 00:42:58;;;;;;;4.28;1.48;;;;;;;;;;5001635;28;20990;-55
2021/08/18 00:45:24;;;;;;;3.35;1.65;;;;;;;;;;5013132;28;20029;-54
2021/08/18 00:47:53;;;;;;;5.10;1.50;;;;;;;;;;4989344;28;20633;-51
2021/08/18 00:50:20;;;;;;;3.65;1.70;;;;;;;;;;4991447;28;20795;-52
2021/08/18 00:52:47;;;;;;;6.20;2.03;;;;;;;;;;4988993;28;20148;-55
2021/08/18 00:55:14;;;;;;;3.35;1.60;;;;;;;;;;4991104;28;20092;-54
2021/08/18 00:57:40;;;;;;;3.90;1.55;;;;;;;;;;4989184;28;20042;-56
2021/08/18 01:00:07;;;;;;;4.10;1.70;;;;;;;;;;4990620;28;20069;-56
2021/08/18 01:02:36;;;;;;;5.43;1.80;;;;;;;;;;4987647;28;20050;-57
2021/08/18 01:05:03;;;;;;;6.10;1.50;;;;;;;;;;4990053;28;20048;-56
2021/08/18 01:07:29;;;;;;;3.20;1.25;;;;;;;;;;4984074;28;20045;-52
2021/08/18 01:09:55;;;;;;;3.15;1.50;;;;;;;;;;4987183;28;20050;-54
2021/08/18 01:12:21;;;;;;;3.55;1.50;;;;;;;;;;4985799;28;20129;-55
2021/08/18 01:14:46;;;;;;;4.28;1.58;;;;;;;;;;4987974;28;20778;-54
2021/08/18 01:17:12;;;;;;;3.35;1.50;;;;;;;;;;4986060;28;20054;-53
2021/08/18 01:19:38;;;;;;;4.13;1.80;;;;;;;;;;4989076;28;20053;-56
2021/08/18 01:22:05;;;;;;;3.80;1.55;;;;;;;;;;4990213;28;20088;-55
2021/08/18 01:24:30;;;;;;;5.20;1.63;;;;;;;;;;5002195;28;20084;-56
2021/08/18 01:26:57;;;;;;;3.38;1.52;;;;;;;;;;4994307;28;20447;-54
2021/08/18 01:29:23;;;;;;;4.95;1.63;;;;;;;;;;4994160;28;20107;-56
2021/08/18 01:31:51;;;;;;;4.18;1.63;;;;;;;;;;5006063;28;20045;-56
2021/08/18 01:34:17;;;;;;;4.38;1.80;;;;;;;;;;5010830;28;20033;-55
2021/08/18 01:36:43;;;;;;;3.25;1.38;;;;;;;;;;5012687;28;20053;-54
2021/08/18 01:39:09;;;;;;;3.72;1.60;;;;;;;;;;5000291;28;20505;-54
2021/08/18 01:41:35;;;;;;;5.60;1.73;;;;;;;;;;4994532;28;20065;-56
2021/08/18 01:44:01;;;;;;;3.55;1.48;;;;;;;;;;4995203;28;20133;-53
2021/08/18 01:46:27;;;;;;;3.28;1.38;;;;;;;;;;4992460;28;20085;-52
2021/08/18 01:48:53;;;;;;;3.55;1.70;;;;;;;;;;5010324;28;20046;-56
2021/08/18 01:51:19;;;;;;;3.92;1.73;;;;;;;;;;4999374;28;20046;-55
2021/08/18 01:53:46;;;;;;;3.65;1.52;;;;;;;;;;4995750;28;20455;-54
2021/08/18 01:56:12;;;;;;;3.72;1.77;;;;;;;;;;4995110;28;20046;-54
2021/08/18 01:58:39;;;;;;;3.78;1.40;;;;;;;;;;4990951;28;20053;-55
2021/08/18 02:01:05;;;;;;;4.30;1.48;;;;;;;;;;4992630;28;20609;-55
2021/08/18 02:03:31;;;;;;;4.43;1.80;;;;;;;;;;4992520;28;20898;-53
2021/08/18 02:05:57;;;;;;;5.28;1.70;;;;;;;;;;4995390;28;20045;-56
2021/08/18 02:08:23;;;;;;;4.28;1.60;;;;;;;;;;4990868;28;20030;-56
2021/08/18 02:10:49;;;;;;;3.42;1.70;;;;;;;;;;4991487;28;20030;-55
2021/08/18 02:13:15;;;;;;;3.45;1.73;;;;;;;;;;4996463;28;20069;-59
2021/08/18 02:15:41;;;;;;;5.00;1.80;;;;;;;;;;4997631;28;20534;-56
2021/08/18 02:18:07;;;;;;;3.47;1.50;;;;;;;;;;4997027;28;20125;-56
2021/08/18 02:20:36;;;;;;;4.60;1.88;;;;;;;;;;5002043;28;20053;-56
2021/08/18 02:23:03;;;;;;;13.35;6.10;;;;;;;;;;4995437;28;20038;-56
2021/08/18 02:25:29;;;;;;;4.35;1.92;;;;;;;;;;5014890;28;20034;-54
2021/08/18 02:27:55;;;;;;;4.72;2.17;;;;;;;;;;5016948;28;20034;-54
2021/08/18 02:30:22;;;;;;;3.58;1.58;;;;;;;;;;5014382;28;20046;-53
2021/08/18 02:32:48;;;;;;;4.03;1.98;;;;;;;;;;5016429;28;20110;-54
2021/08/18 02:35:14;;;;;;;3.83;2.08;;;;;;;;;;5016396;28;20086;-54
2021/08/18 02:37:41;;;;;;;5.13;1.95;;;;;;;;;;5014596;28;20033;-51
2021/08/18 02:40:09;;;;;;;4.63;2.28;;;;;;;;;;5015589;28;20116;-54
2021/08/18 02:42:35;;;;;;;4.03;2.08;;;;;;;;;;5015602;28;20081;-53
2021/08/18 02:45:01;;;;;;;4.65;1.92;;;;;;;;;;5016470;28;20137;-54
2021/08/18 02:47:26;;;;;;;6.47;1.92;;;;;;;;;;5017174;28;20041;-50
2021/08/18 02:49:52;;;;;;;4.47;2.30;;;;;;;;;;5016565;28;20476;-54
2021/08/18 02:52:18;;;;;;;4.10;2.30;;;;;;;;;;5013788;28;20049;-54
2021/08/18 02:54:44;;;;;;;5.55;2.40;;;;;;;;;;5015320;28;20041;-54
2021/08/18 02:57:10;;;;;;;4.75;2.65;;;;;;;;;;5015083;28;20072;-54
2021/08/18 02:59:36;;;;;;;4.40;2.72;;;;;;;;;;5014703;28;20348;-54
2021/08/18 03:02:02;;;;;;;4.45;2.53;;;;;;;;;;5015948;28;21921;-53
2021/08/18 03:04:28;;;;;;;4.68;2.70;;;;;;;;;;5014542;28;20045;-52
2021/08/18 03:06:54;;;;;;;4.60;2.40;;;;;;;;;;5014263;28;20037;-54
2021/08/18 03:09:21;;;;;;;6.20;2.90;;;;;;;;;;5013938;28;20041;-53
2021/08/18 03:11:47;;;;;;;5.05;2.65;;;;;;;;;;5014163;28;20041;-55
2021/08/18 03:14:13;;;;;;;5.63;2.97;;;;;;;;;;5015581;28;20049;-52
2021/08/18 03:16:39;;;;;;;4.80;2.58;;;;;;;;;;5014824;28;20133;-54
2021/08/18 03:19:05;;;;;;;4.78;2.75;;;;;;;;;;5016158;28;20041;-52
2021/08/18 03:21:30;;;;;;;4.88;2.60;;;;;;;;;;5013904;28;20099;-55
2021/08/18 03:23:56;;;;;;;5.20;2.83;;;;;;;;;;5015335;28;20109;-54
2021/08/18 03:26:22;;;;;;;6.07;2.90;;;;;;;;;;5014061;28;20752;-53
2021/08/18 03:28:48;;;;;;;6.13;2.92;;;;;;;;;;5012811;28;20052;-56
2021/08/18 03:31:13;;;;;;;5.63;3.33;;;;;;;;;;5016122;28;20065;-54
2021/08/18 03:33:39;;;;;;;4.80;2.70;;;;;;;;;;5014080;28;20532;-53
2021/08/18 03:36:05;;;;;;;4.53;2.40;;;;;;;;;;5014771;28;20045;-54
2021/08/18 03:38:31;;;;;;;5.95;3.20;;;;;;;;;;5014630;28;20057;-53
2021/08/18 03:40:57;;;;;;;4.50;2.35;;;;;;;;;;4996239;28;20156;-55
2021/08/18 03:43:22;;;;;;;6.63;3.00;;;;;;;;;;4995928;28;20065;-55
2021/08/18 03:45:48;;;;;;;8.07;3.05;;;;;;;;;;4990530;28;20368;-54
2021/08/18 03:48:14;;;;;;;5.50;2.70;;;;;;;;;;4995607;28;20493;-54
2021/08/18 03:50:40;;;;;;;6.30;3.00;;;;;;;;;;5011800;28;20088;-54
2021/08/18 03:53:06;;;;;;;5.30;2.95;;;;;;;;;;5017070;28;20580;-55
2021/08/18 03:55:32;;;;;;;5.65;3.10;;;;;;;;;;5015754;28;20511;-52
2021/08/18 03:57:57;;;;;;;5.25;2.83;;;;;;;;;;5017510;28;20065;-54
2021/08/18 04:00:23;;;;;;;4.97;2.63;;;;;;;;;;5016206;28;20037;-52
2021/08/18 04:02:49;;;;;;;5.15;2.60;;;;;;;;;;5016636;28;20494;-53
2021/08/18 04:05:15;;;;;;;5.57;2.92;;;;;;;;;;5016125;28;20057;-55
2021/08/18 04:07:41;;;;;;;4.40;2.67;;;;;;;;;;5018114;28;20025;-52
2021/08/18 04:10:07;;;;;;;4.90;2.88;;;;;;;;;;5017038;28;20034;-51
2021/08/18 04:12:52;;;;;;;8.75;3.40;;;;;;;;;;5016182;28;20029;-53
2021/08/18 04:15:18;;;;;;;6.35;3.00;;;;;;;;;;5014823;28;20401;-54
2021/08/18 04:17:43;;;;;;;5.82;3.40;;;;;;;;;;5013769;28;20053;-53
2021/08/18 04:20:09;;;;;;;4.00;2.15;;;;;;;;;;5015073;28;20565;-51
2021/08/18 04:22:35;;;;;;;4.60;2.42;;;;;;;;;;5015869;28;20053;-54
2021/08/18 04:25:01;;;;;;;4.15;2.50;;;;;;;;;;5016378;28;20398;-53
2021/08/18 04:27:27;;;;;;;6.25;2.80;;;;;;;;;;5016313;28;20041;-51
2021/08/18 04:29:52;;;;;;;5.10;2.70;;;;;;;;;;5016372;28;20037;-55
2021/08/18 04:32:18;;;;;;;10.05;2.90;;;;;;;;;;5015887;28;20448;-52
2021/08/18 04:34:44;;;;;;;4.60;2.50;;;;;;;;;;5017700;28;20152;-51
2021/08/18 04:37:10;;;;;;;5.20;2.70;;;;;;;;;;5016654;28;20053;-51
2021/08/18 04:39:36;;;;;;;4.68;2.70;;;;;;;;;;5014857;28;20042;-53
2021/08/18 04:42:02;;;;;;;6.10;2.97;;;;;;;;;;5015714;28;20064;-53
2021/08/18 04:44:28;;;;;;;5.15;2.72;;;;;;;;;;5014929;28;20037;-51
2021/08/18 04:46:53;;;;;;;5.88;2.80;;;;;;;;;;5014081;28;20156;-52
2021/08/18 04:49:19;;;;;;;5.38;2.67;;;;;;;;;;5014845;28;20124;-54
2021/08/18 04:51:45;;;;;;;7.10;2.85;;;;;;;;;;5017575;28;20061;-53
2021/08/18 04:54:11;;;;;;;5.72;2.30;;;;;;;;;;5015419;28;20041;-54
2021/08/18 04:56:36;;;;;;;5.97;3.00;;;;;;;;;;5012243;28;20048;-54
2021/08/18 04:59:02;;;;;;;5.97;2.50;;;;;;;;;;5010739;28;20033;-54
2021/08/18 05:01:28;;;;;;;4.78;2.67;;;;;;;;;;5010031;28;20462;-53
2021/08/18 05:03:54;;;;;;;6.10;2.75;;;;;;;;;;5011498;28;20849;-52
2021/08/18 05:06:20;;;;;;;5.65;3.15;;;;;;;;;;5010190;28;20522;-53
2021/08/18 05:08:45;;;;;;;5.22;2.28;;;;;;;;;;5010686;28;20038;-51
2021/08/18 05:11:11;;;;;;;5.50;2.63;;;;;;;;;;5011260;28;20056;-53
2021/08/18 05:13:37;;;;;;;5.28;2.60;;;;;;;;;;5009436;28;20302;-51
2021/08/18 05:16:03;;;;;;;5.97;2.97;;;;;;;;;;5008189;28;20065;-53
2021/08/18 05:18:28;;;;;;;5.53;2.33;;;;;;;;;;5009327;28;20605;-52
2021/08/18 05:20:54;;;;;;;4.90;2.55;;;;;;;;;;5011124;28;20418;-53
2021/08/18 05:23:20;;;;;;;5.45;2.55;;;;;;;;;;5009378;28;20049;-53
2021/08/18 05:25:46;;;;;;;4.47;2.30;;;;;;;;;;5011028;28;20881;-51
2021/08/18 05:28:13;;;;;;;4.65;2.40;;;;;;;;;;5010043;28;20044;-49
2021/08/18 05:30:40;;;;;;;4.28;2.50;;;;;;;;;;5009166;28;20442;-52
2021/08/18 05:33:05;;;;;;;5.13;2.58;;;;;;;;;;5009527;28;20049;-51
2021/08/18 05:35:31;;;;;;;5.05;2.55;;;;;;;;;;5001273;28;20523;-51
2021/08/18 05:37:57;;;;;;;4.68;2.40;;;;;;;;;;5012721;28;20037;-52
2021/08/18 05:40:23;;;;;;;6.57;3.25;;;;;;;;;;5016878;28;20069;-54
2021/08/18 05:42:48;;;;;;;4.85;2.42;;;;;;;;;;5017607;28;20053;-51
2021/08/18 05:45:15;;;;;;;5.00;2.50;;;;;;;;;;5017834;28;20500;-54
2021/08/18 05:47:41;;;;;;;5.93;2.70;;;;;;;;;;5016692;28;20075;-53
2021/08/18 05:50:07;;;;;;;4.75;2.25;;;;;;;;;;5017671;28;20037;-50
2021/08/18 05:52:33;;;;;;;4.20;2.38;;;;;;;;;;5017504;28;20394;-52
2021/08/18 05:55:02;;;;;;;4.13;2.28;;;;;;;;;;5017693;28;20038;-53
2021/08/18 05:57:28;;;;;;;4.47;2.30;;;;;;;;;;5018393;28;20124;-52
2021/08/18 05:59:54;;;;;;;5.07;2.70;;;;;;;;;;5017758;28;20043;-53
2021/08/18 06:02:20;;;;;;;4.43;2.53;;;;;;;;;;5017463;28;21900;-51
2021/08/18 06:04:46;;;;;;;6.07;2.70;;;;;;;;;;5017756;28;20072;-54
2021/08/18 06:07:11;;;;;;;8.07;2.70;;;;;;;;;;5016040;28;20045;-54
2021/08/18 06:09:37;;;;;;;5.38;2.55;;;;;;;;;;5016313;28;20052;-55
2021/08/18 06:12:06;;;;;;;5.10;2.33;;;;;;;;;;5015328;28;20055;-53
2021/08/18 06:14:32;;;;;;;4.55;2.40;;;;;;;;;;5015410;28;20100;-53
2021/08/18 06:16:58;;;;;;;5.55;2.50;;;;;;;;;;5017221;28;20565;-54
2021/08/18 06:19:24;;;;;;;6.32;2.28;;;;;;;;;;5015360;28;20076;-54
2021/08/18 06:21:51;;;;;;;9.38;2.50;;;;;;;;;;5016557;28;20045;-54
2021/08/18 06:24:28;;;;;;;4.57;2.35;;;;;;;;;;5017579;28;20045;-54
2021/08/18 06:26:55;;;;;;;4.75;2.78;;;;;;;;;;5016023;28;20045;-54
2021/08/18 06:29:21;;;;;;;4.82;2.35;;;;;;;;;;5016713;28;20037;-52
2021/08/18 06:31:48;;;;;;;4.22;2.42;;;;;;;;;;5016550;28;20056;-54
2021/08/18 06:34:14;;;;;;;7.00;2.30;;;;;;;;;;5016322;28;20141;-51
2021/08/18 06:36:40;;;;;;;4.07;2.30;;;;;;;;;;5015417;28;20080;-54
2021/08/18 06:39:06;;;;;;;5.63;2.70;;;;;;;;;;5015666;28;20045;-52
2021/08/18 06:41:32;;;;;;;5.95;2.72;;;;;;;;;;5015159;28;20771;-53
2021/08/18 06:43:57;;;;;;;5.40;2.65;;;;;;;;;;5016604;28;20037;-55
2021/08/18 06:46:23;;;;;;;4.57;2.47;;;;;;;;;;5015549;28;20160;-54
2021/08/18 06:48:49;;;;;;;4.22;2.22;;;;;;;;;;5015611;28;21023;-51
2021/08/18 06:51:16;;;;;;;5.50;2.42;;;;;;;;;;5014992;28;20052;-55
2021/08/18 06:53:44;;;;;;;4.20;2.40;;;;;;;;;;5015907;28;20046;-52
2021/08/18 06:56:10;;;;;;;5.07;2.47;;;;;;;;;;5015907;28;20037;-54
2021/08/18 06:58:37;;;;;;;6.35;2.72;;;;;;;;;;5015029;28;20124;-53
2021/08/18 07:01:04;;;;;;;4.65;1.95;;;;;;;;;;5015379;28;20111;-53
2021/08/18 07:03:29;;;;;;;5.13;2.45;;;;;;;;;;5015765;28;20127;-54
2021/08/18 07:05:55;;;;;;;6.28;2.63;;;;;;;;;;5016136;28;20029;-52
2021/08/18 07:08:21;;;;;;;5.35;2.58;;;;;;;;;;5014324;28;20852;-54
2021/08/18 07:10:47;;;;;;;4.68;2.47;;;;;;;;;;5015180;28;20041;-53
2021/08/18 07:13:13;;;;;;;6.03;2.60;;;;;;;;;;5016846;28;20041;-55
2021/08/18 07:15:38;;;;;;;7.43;2.58;;;;;;;;;;5015772;28;20121;-54
2021/08/18 07:18:05;;;;;;;4.75;2.70;;;;;;;;;;5015344;28;20456;-52
2021/08/18 07:20:30;;;;;;;4.82;2.67;;;;;;;;;;5015251;28;20048;-54
2021/08/18 07:22:56;;;;;;;7.20;2.70;;;;;;;;;;5015147;28;20409;-55
2021/08/18 07:25:22;;;;;;;5.43;2.55;;;;;;;;;;5015836;28;20379;-54
2021/08/18 07:27:48;;;;;;;4.88;2.72;;;;;;;;;;5015283;28;20042;-54
2021/08/18 07:30:14;;;;;;;5.10;2.53;;;;;;;;;;5015589;28;20528;-53
2021/08/18 07:32:40;;;;;;;5.50;2.72;;;;;;;;;;5015530;28;20037;-52
2021/08/18 07:35:07;;;;;;;5.07;2.55;;;;;;;;;;5015862;28;20033;-53
2021/08/18 07:37:32;;;;;;;4.70;2.30;;;;;;;;;;5015881;28;20119;-54
2021/08/18 07:39:59;;;;;;;4.78;2.42;;;;;;;;;;5015815;28;22646;-55
2021/08/18 07:42:25;;;;;;;6.57;2.42;;;;;;;;;;5015895;28;20041;-55
2021/08/18 07:44:51;;;;;;;5.15;2.20;;;;;;;;;;5000383;28;20041;-54
2021/08/18 07:47:16;;;;;;;4.97;2.60;;;;;;;;;;5004466;28;20034;-55
2021/08/18 07:49:42;;;;;;;6.15;2.70;;;;;;;;;;5002664;28;20038;-52
2021/08/18 07:52:08;;;;;;;4.40;2.40;;;;;;;;;;4994749;28;20088;-55
2021/08/18 07:54:34;;;;;;;4.60;2.47;;;;;;;;;;4990871;28;20045;-54
2021/08/18 07:57:00;;;;;;;6.35;2.75;;;;;;;;;;4998222;28;20033;-55
2021/08/18 07:59:26;;;;;;;5.30;2.50;;;;;;;;;;5015056;28;20536;-51
2021/08/18 08:01:52;;;;;;;5.03;2.20;;;;;;;;;;5015335;28;20064;-54
2021/08/18 08:04:18;;;;;;;5.05;2.58;;;;;;;;;;5015749;28;20390;-54
2021/08/18 08:06:45;;;;;;;4.90;2.58;;;;;;;;;;5014599;28;20083;-52
2021/08/18 08:09:11;;;;;;;5.18;2.85;;;;;;;;;;5015156;28;20045;-52
2021/08/18 08:11:37;;;;;;;10.25;2.67;;;;;;;;;;5015070;28;20048;-54
2021/08/18 08:14:03;;;;;;;4.82;2.65;;;;;;;;;;5013977;28;20045;-51
2021/08/18 08:16:28;;;;;;;5.32;2.70;;;;;;;;;;5014717;28;20134;-54
2021/08/18 08:18:54;;;;;;;4.32;2.13;;;;;;;;;;5015043;28;20045;-53
2021/08/18 08:21:20;;;;;;;4.97;2.85;;;;;;;;;;5016908;28;20072;-55
2021/08/18 08:23:46;;;;;;;5.20;2.60;;;;;;;;;;5015480;28;20080;-52
2021/08/18 08:26:12;;;;;;;5.05;2.75;;;;;;;;;;5016402;28;20506;-54
2021/08/18 08:28:38;;;;;;;6.82;2.97;;;;;;;;;;5015328;28;20045;-54
2021/08/18 08:31:04;;;;;;;6.25;3.17;;;;;;;;;;5013563;28;20125;-51
2021/08/18 08:33:30;;;;;;;4.78;2.67;;;;;;;;;;5015415;28;20508;-54
2021/08/18 08:35:55;;;;;;;5.45;3.05;;;;;;;;;;5018627;28;20085;-53
2021/08/18 08:38:21;;;;;;;5.93;3.25;;;;;;;;;;5018201;28;20359;-55
2021/08/18 08:40:47;;;;;;;5.18;2.80;;;;;;;;;;5016208;28;20056;-52
2021/08/18 08:43:14;;;;;;;12.57;3.28;;;;;;;;;;5018978;28;20450;-55
2021/08/18 08:45:46;;;;;;;4.95;2.67;;;;;;;;;;5017459;28;20037;-52
2021/08/18 08:48:14;;;;;;;7.50;3.30;;;;;;;;;;5019080;28;20061;-53
2021/08/18 08:50:40;;;;;;;5.65;3.22;;;;;;;;;;5016827;28;20045;-54
2021/08/18 08:53:05;;;;;;;5.68;2.90;;;;;;;;;;5018548;28;20049;-52
2021/08/18 08:55:31;;;;;;;6.00;3.10;;;;;;;;;;5018905;28;20084;-52
2021/08/18 08:57:57;;;;;;;6.03;3.25;;;;;;;;;;5019742;28;20045;-53
2021/08/18 09:00:23;;;;;;;5.53;3.17;;;;;;;;;;5017530;28;21066;-52
2021/08/18 09:03:09;;;;;;;5.20;3.13;;;;;;;;;;5018233;28;20129;-55
2021/08/18 09:05:36;;;;;;;5.05;3.13;;;;;;;;;;5017981;28;20030;-53
2021/08/18 09:08:02;;;;;;;5.50;3.05;;;;;;;;;;5033191;28;20045;-55
2021/08/18 09:10:28;;;;;;;7.40;3.55;;;;;;;;;;5017711;28;20501;-53
2021/08/18 09:13:08;;;;;;;5.75;3.22;;;;;;;;;;5018931;28;20037;-51
2021/08/18 09:15:33;;;;;;;5.60;3.33;;;;;;;;;;5016613;28;20045;-55
2021/08/18 09:17:59;;;;;;;6.82;3.47;;;;;;;;;;5018864;28;20052;-53
2021/08/18 09:20:29;;;;;;;5.13;2.92;;;;;;;;;;5017551;28;20564;-53
2021/08/18 09:22:58;;;;;;;6.35;3.25;;;;;;;;;;5018738;28;20223;-52
2021/08/18 09:25:26;;;;;;;4.63;3.00;;;;;;;;;;5018144;28;20505;-55
2021/08/18 09:27:52;;;;;;;6.00;3.53;;;;;;;;;;5008926;28;20042;-54
2021/08/18 09:30:23;;;;;;;6.70;3.45;;;;;;;;;;5005436;28;20088;-55
2021/08/18 09:32:49;;;;;;;6.00;3.47;;;;;;;;;;5018548;28;20068;-52
2021/08/18 09:35:17;;;;;;;5.65;3.33;;;;;;;;;;5019880;28;20056;-54
2021/08/18 09:37:54;;;;;;;7.70;3.15;;;;;;;;;;5007748;28;20041;-54
2021/08/18 09:40:21;;;;;;;5.43;3.00;;;;;;;;;;5018157;28;20584;-54
2021/08/18 09:42:47;;;;;;;6.07;3.13;;;;;;;;;;5017890;28;20079;-55
2021/08/18 09:45:13;;;;;;;5.20;3.28;;;;;;;;;;5019492;28;20748;-52
2021/08/18 09:47:51;;;;;;;6.93;3.30;;;;;;;;;;5016886;28;20042;-53
2021/08/18 09:50:17;;;;;;;6.10;3.50;;;;;;;;;;5017660;28;20098;-51
2021/08/18 09:52:44;;;;;;;6.70;3.40;;;;;;;;;;4998662;28;20042;-54
2021/08/18 09:55:11;;;;;;;5.82;3.45;;;;;;;;;;4997837;28;20064;-53
2021/08/18 09:57:37;;;;;;;6.28;3.58;;;;;;;;;;4993476;28;20046;-54
2021/08/18 10:00:03;;;;;;;8.73;3.78;;;;;;;;;;5006847;28;21407;-54
2021/08/18 10:02:29;;;;;;;5.40;3.20;;;;;;;;;;4995764;28;20393;-51
2021/08/18 10:04:59;;;;;;;8.73;4.15;;;;;;;;;;5001005;28;20037;-53
2021/08/18 10:07:25;;;;;;;9.43;3.85;;;;;;;;;;5009655;28;20045;-51
2021/08/18 10:09:51;;;;;;;6.15;3.58;;;;;;;;;;4999334;28;20052;-52
2021/08/18 10:12:17;;;;;;;8.00;4.00;;;;;;;;;;5006325;28;20514;-55
2021/08/18 10:14:42;;;;;;;7.95;4.22;;;;;;;;;;4998363;28;20045;-53
2021/08/18 10:17:08;;;;;;;6.00;3.72;;;;;;;;;;4989193;28;20073;-54
2021/08/18 10:19:34;;;;;;;7.78;3.75;;;;;;;;;;4989946;28;22130;-55
2021/08/18 10:22:00;;;;;;;7.82;3.70;;;;;;;;;;4989145;28;20467;-54
2021/08/18 10:24:35;;;;;;;8.65;4.30;;;;;;;;;;5012975;28;20095;-54
2021/08/18 10:27:04;;;;;;;8.05;4.65;;;;;;;;;;5016958;28;20043;-52
2021/08/18 10:29:30;;;;;;;9.35;4.45;;;;;;;;;;5016162;28;20582;-51
2021/08/18 10:31:57;;;;;;;8.38;4.72;;;;;;;;;;5016673;28;20030;-53
2021/08/18 10:34:23;;;;;;;7.00;4.25;;;;;;;;;;5015730;28;20060;-54
2021/08/18 10:36:53;;;;;;;9.57;4.50;;;;;;;;;;5016867;28;20184;-53
2021/08/18 10:39:18;;;;;;;7.30;4.32;;;;;;;;;;5015063;28;20121;-54
2021/08/18 10:41:56;;;;;;;8.27;4.55;;;;;;;;;;5016503;28;20049;-53
2021/08/18 10:44:33;;;;;;;7.05;4.40;;;;;;;;;;5016279;28;20551;-54
2021/08/18 10:47:11;;;;;;;6.80;4.15;;;;;;;;;;5017278;28;20041;-54
2021/08/18 10:49:37;;;;;;;11.57;4.10;;;;;;;;;;5013870;28;20442;-54
2021/08/18 10:52:03;;;;;;;8.32;4.55;;;;;;;;;;5017325;28;20169;-54
2021/08/18 10:54:29;;;;;;;7.88;4.70;;;;;;;;;;5015694;28;20042;-53
2021/08/18 10:56:58;;;;;;;10.00;4.25;;;;;;;;;;5016157;28;20053;-54
2021/08/18 10:59:36;;;;;;;6.82;4.32;;;;;;;;;;5016448;28;20139;-51
2021/08/18 11:02:03;;;;;;;9.45;4.30;;;;;;;;;;5015432;28;20413;-54
2021/08/18 11:04:44;;;;;;;7.07;3.90;;;;;;;;;;5016001;28;20038;-55
2021/08/18 11:07:10;;;;;;;7.85;4.45;;;;;;;;;;5015571;28;20052;-55
2021/08/18 11:09:48;;;;;;;7.32;4.38;;;;;;;;;;5014896;28;20087;-54
2021/08/18 11:12:32;;;;;;;6.78;4.25;;;;;;;;;;5015498;28;20076;-54
2021/08/18 11:14:58;;;;;;;9.93;4.45;;;;;;;;;;5011308;28;20273;-52
2021/08/18 11:17:24;;;;;;;6.95;4.65;;;;;;;;;;5001128;28;20049;-55
2021/08/18 11:19:51;;;;;;;9.00;4.40;;;;;;;;;;5003572;28;21127;-54
2021/08/18 11:22:17;;;;;;;7.40;4.20;;;;;;;;;;4991932;28;20141;-53
2021/08/18 11:24:43;;;;;;;7.57;4.68;;;;;;;;;;5012120;28;20042;-54
2021/08/18 11:27:09;;;;;;;9.75;4.60;;;;;;;;;;4994117;28;20048;-52
2021/08/18 11:29:38;;;;;;;9.90;4.57;;;;;;;;;;4996691;28;20472;-54
2021/08/18 11:32:03;;;;;;;8.02;4.90;;;;;;;;;;4998034;28;20524;-54
2021/08/18 11:34:31;;;;;;;11.55;5.03;;;;;;;;;;5002819;28;20131;-52
2021/08/18 11:37:02;;;;;;;8.77;4.47;;;;;;;;;;5000823;28;20042;-54
2021/08/18 11:39:34;;;;;;;7.28;4.63;;;;;;;;;;5005365;28;20041;-55
2021/08/18 11:42:00;;;;;;;8.23;4.85;;;;;;;;;;4996991;28;20509;-54
2021/08/18 11:44:31;;;;;;;10.60;5.43;;;;;;;;;;5013961;28;20394;-55
2021/08/18 11:47:07;;;;;;;8.77;5.28;;;;;;;;;;5016116;28;20148;-54
2021/08/18 11:49:33;;;;;;;10.18;5.68;;;;;;;;;;4997959;28;20166;-55
2021/08/18 11:51:59;;;;;;;9.27;5.13;;;;;;;;;;4997850;28;20534;-53
2021/08/18 11:54:26;;;;;;;9.63;5.60;;;;;;;;;;4993807;28;20061;-55
2021/08/18 11:57:01;;;;;;;10.75;5.68;;;;;;;;;;4998684;28;20125;-55
2021/08/18 11:59:27;;;;;;;10.27;5.82;;;;;;;;;;5006023;28;20066;-54
2021/08/18 12:01:54;;;;;;;11.63;5.85;;;;;;;;;;4992096;28;20114;-54
2021/08/18 12:04:20;;;;;;;9.13;5.28;;;;;;;;;;4991444;28;20503;-55
2021/08/18 12:06:47;;;;;;;10.15;5.20;;;;;;;;;;5004858;28;20120;-52
2021/08/18 12:09:20;;;;;;;10.73;5.82;;;;;;;;;;5008090;28;20045;-55
2021/08/18 12:11:46;;;;;;;10.85;6.22;;;;;;;;;;4999362;28;20038;-55
2021/08/18 12:14:13;;;;;;;11.57;5.93;;;;;;;;;;5000722;28;20049;-54
2021/08/18 12:16:39;;;;;;;9.40;5.47;;;;;;;;;;4995233;28;20050;-53
2021/08/18 12:19:16;;;;;;;10.13;5.15;;;;;;;;;;4993894;28;20728;-52
2021/08/18 12:21:42;;;;;;;10.60;5.47;;;;;;;;;;5008250;28;20041;-52
2021/08/18 12:24:09;;;;;;;11.45;5.97;;;;;;;;;;5004040;28;20055;-51
2021/08/18 12:26:40;;;;;;;14.65;5.93;;;;;;;;;;5000482;28;20038;-55
2021/08/18 12:29:07;;;;;;;12.88;6.50;;;;;;;;;;5012101;28;20100;-56
2021/08/18 12:31:51;;;;;;;10.32;5.40;;;;;;;;;;4998346;28;20037;-56
2021/08/18 12:34:16;;;;;;;8.95;5.25;;;;;;;;;;4998526;28;20038;-55
2021/08/18 12:36:42;;;;;;;9.35;4.82;;;;;;;;;;4996896;28;20421;-54
2021/08/18 12:39:08;;;;;;;8.32;5.05;;;;;;;;;;4997113;28;20034;-55
2021/08/18 12:41:35;;;;;;;8.02;5.10;;;;;;;;;;4998561;28;20140;-55
2021/08/18 12:44:05;;;;;;;10.25;4.80;;;;;;;;;;4997497;28;20088;-54
2021/08/18 12:46:35;;;;;;;7.20;4.18;;;;;;;;;;4997254;28;20330;-57
2021/08/18 12:49:19;;;;;;;7.50;4.45;;;;;;;;;;4997914;28;20061;-56
2021/08/18 12:51:45;;;;;;;11.43;4.88;;;;;;;;;;4997482;28;20042;-53
2021/08/18 12:54:11;;;;;;;8.48;4.53;;;;;;;;;;5005583;28;20095;-55
2021/08/18 12:56:37;;;;;;;9.50;4.20;;;;;;;;;;5005382;28;20041;-52
2021/08/18 12:59:02;;;;;;;7.13;4.35;;;;;;;;;;4996016;28;20112;-55
2021/08/18 13:01:28;;;;;;;8.38;4.57;;;;;;;;;;4998182;28;20060;-55
2021/08/18 13:03:54;;;;;;;10.93;5.15;;;;;;;;;;5006684;28;20076;-54
2021/08/18 13:06:20;;;;;;;8.52;4.80;;;;;;;;;;4998282;28;20406;-54
2021/08/18 13:08:45;;;;;;;9.32;4.15;;;;;;;;;;4997534;28;20042;-55
2021/08/18 13:11:11;;;;;;;8.40;4.53;;;;;;;;;;5002533;28;20039;-55
2021/08/18 13:13:37;;;;;;;7.07;4.00;;;;;;;;;;5016714;28;20041;-54
2021/08/18 13:16:03;;;;;;;7.75;3.95;;;;;;;;;;5018172;28;20037;-52
2021/08/18 13:18:29;;;;;;;8.25;4.22;;;;;;;;;;5016560;28;20153;-55
2021/08/18 13:20:54;;;;;;;8.07;4.05;;;;;;;;;;5018101;28;20070;-55
2021/08/18 13:23:20;;;;;;;7.75;4.38;;;;;;;;;;5017985;28;20064;-54
2021/08/18 13:25:46;;;;;;;7.00;4.65;;;;;;;;;;5017997;28;20401;-55
2021/08/18 13:28:12;;;;;;;7.00;4.43;;;;;;;;;;5018151;28;20064;-56
2021/08/18 13:30:37;;;;;;;9.80;4.50;;;;;;;;;;5017077;28;20103;-54
2021/08/18 13:33:03;;;;;;;10.15;4.88;;;;;;;;;;5018182;28;20045;-56
2021/08/18 13:35:30;;;;;;;9.98;4.50;;;;;;;;;;5017765;28;20046;-56
2021/08/18 13:37:56;;;;;;;7.88;4.57;;;;;;;;;;4993600;28;20042;-55
2021/08/18 13:40:22;;;;;;;12.20;4.78;;;;;;;;;;4996300;28;20079;-50
2021/08/18 13:42:48;;;;;;;8.25;4.40;;;;;;;;;;5004022;28;20760;-53
2021/08/18 13:45:14;;;;;;;9.55;4.47;;;;;;;;;;5000376;28;20103;-52
2021/08/18 13:47:40;;;;;;;10.73;4.65;;;;;;;;;;4991944;28;20049;-53
2021/08/18 13:50:06;;;;;;;15.10;4.38;;;;;;;;;;4997438;28;20040;-53
2021/08/18 13:52:31;;;;;;;8.63;4.43;;;;;;;;;;4994535;28;20038;-50
2021/08/18 13:54:57;;;;;;;8.77;3.97;;;;;;;;;;5003571;28;20446;-51
2021/08/18 13:57:23;;;;;;;8.88;4.32;;;;;;;;;;5012985;28;20048;-50
2021/08/18 13:59:49;;;;;;;7.97;4.40;;;;;;;;;;5013997;28;20471;-52
2021/08/18 14:02:15;;;;;;;7.43;4.35;;;;;;;;;;5005556;28;20128;-50
2021/08/18 14:04:41;;;;;;;10.10;4.25;;;;;;;;;;4996202;28;20066;-52
2021/08/18 14:07:07;;;;;;;14.40;4.93;;;;;;;;;;4993786;28;20827;-53
2021/08/18 14:09:33;;;;;;;12.15;5.05;;;;;;;;;;4996163;28;20117;-53
2021/08/18 14:11:58;;;;;;;13.30;5.55;;;;;;;;;;5009922;28;20046;-53
2021/08/18 14:14:24;;;;;;;13.55;5.50;;;;;;;;;;5005474;28;20069;-52
2021/08/18 14:16:50;;;;;;;12.85;5.22;;;;;;;;;;5017346;28;20060;-51
2021/08/18 14:19:16;;;;;;;8.50;5.18;;;;;;;;;;5016944;28;20045;-53
2021/08/18 14:21:41;;;;;;;14.50;5.95;;;;;;;;;;5016846;28;20049;-51
2021/08/18 14:24:07;;;;;;;17.83;6.38;;;;;;;;;;5018184;28;20037;-50
2021/08/18 14:26:33;;;;;;;13.70;5.78;;;;;;;;;;5017879;28;20045;-52
2021/08/18 14:28:59;;;;;;;12.40;5.13;;;;;;;;;;5020012;28;20123;-50
2021/08/18 14:31:25;;;;;;;13.65;6.03;;;;;;;;;;5018492;28;20057;-50
2021/08/18 14:33:50;;;;;;;16.00;6.47;;;;;;;;;;5017021;28;20521;-53
2021/08/18 14:36:16;;;;;;;16.88;6.50;;;;;;;;;;5019421;28;20128;-51
2021/08/18 14:38:42;;;;;;;14.35;6.50;;;;;;;;;;5016934;28;20176;-53